sensor_id;sensor_type;location;lat;lon;timestamp;P1;durP1;ratioP1;P2;durP2;ratioP2
53263;SDS011;39153;52.680;6.172;2023-02-25T00:00:06;13.45;;;1.42;;
53263;SDS011;39153;52.680;6.172;2023-02-25T00:02:46;16.20;;;1.75;;
53263;SDS011;39153;52.680;6.172;2023-02-25T00:05:14;18.13;;;1.80;;
53263;SDS011;39153;52.680;6.172;2023-02-25T00:07:40;19.70;;;2.33;;
53263;SDS011;39153;52.680;6.172;2023-02-25T00:10:07;14.77;;;1.95;;
53263;SDS011;39153;52.680;6.172;2023-02-25T00:12:35;13.25;;;2.20;;
53263;SDS011;39153;52.680;6.172;2023-02-25T00:15:01;19.90;;;1.98;;
53263;SDS011;39153;52.680;6.172;2023-02-25T00:17:28;22.27;;;2.65;;
53263;SDS011;39153;52.680;6.172;2023-02-25T00:19:54;28.88;;;2.67;;
53263;SDS011;39153;52.680;6.172;2023-02-25T00:22:21;13.40;;;2.15;;
53263;SDS011;39153;52.680;6.172;2023-02-25T00:24:51;17.25;;;2.55;;
53263;SDS011;39153;52.680;6.172;2023-02-25T00:27:18;23.38;;;2.85;;
53263;SDS011;39153;52.680;6.172;2023-02-25T00:29:44;20.08;;;2.22;;
53263;SDS011;39153;52.680;6.172;2023-02-25T00:32:09;16.05;;;2.60;;
53263;SDS011;39153;52.680;6.172;2023-02-25T00:34:35;20.83;;;2.17;;
53263;SDS011;39153;52.680;6.172;2023-02-25T00:37:01;21.90;;;1.80;;
53263;SDS011;39153;52.680;6.172;2023-02-25T00:39:26;18.98;;;2.17;;
53263;SDS011;39153;52.680;6.172;2023-02-25T00:42:09;21.38;;;3.15;;
53263;SDS011;39153;52.680;6.172;2023-02-25T00:44:37;20.88;;;2.90;;
53263;SDS011;39153;52.680;6.172;2023-02-25T00:47:04;21.50;;;3.25;;
53263;SDS011;39153;52.680;6.172;2023-02-25T00:49:32;21.35;;;2.35;;
53263;SDS011;39153;52.680;6.172;2023-02-25T00:51:58;18.00;;;2.47;;
53263;SDS011;39153;52.680;6.172;2023-02-25T00:54:24;15.85;;;2.33;;
53263;SDS011;39153;52.680;6.172;2023-02-25T00:56:49;16.60;;;2.53;;
53263;SDS011;39153;52.680;6.172;2023-02-25T00:59:15;19.50;;;3.92;;
53263;SDS011;39153;52.680;6.172;2023-02-25T01:01:41;21.48;;;2.88;;
53263;SDS011;39153;52.680;6.172;2023-02-25T01:04:07;20.23;;;2.63;;
53263;SDS011;39153;52.680;6.172;2023-02-25T01:06:34;22.00;;;2.97;;
53263;SDS011;39153;52.680;6.172;2023-02-25T01:09:06;18.05;;;2.63;;
53263;SDS011;39153;52.680;6.172;2023-02-25T01:11:38;18.27;;;1.95;;
53263;SDS011;39153;52.680;6.172;2023-02-25T01:14:16;19.35;;;2.47;;
53263;SDS011;39153;52.680;6.172;2023-02-25T01:16:43;17.52;;;2.00;;
53263;SDS011;39153;52.680;6.172;2023-02-25T01:19:12;18.27;;;2.80;;
53263;SDS011;39153;52.680;6.172;2023-02-25T01:21:43;17.25;;;2.38;;
53263;SDS011;39153;52.680;6.172;2023-02-25T01:24:18;21.27;;;2.42;;
53263;SDS011;39153;52.680;6.172;2023-02-25T01:26:46;16.30;;;2.17;;
53263;SDS011;39153;52.680;6.172;2023-02-25T01:29:16;19.77;;;2.22;;
53263;SDS011;39153;52.680;6.172;2023-02-25T01:31:45;18.20;;;3.45;;
53263;SDS011;39153;52.680;6.172;2023-02-25T01:34:14;17.55;;;2.38;;
53263;SDS011;39153;52.680;6.172;2023-02-25T01:36:41;23.08;;;2.55;;
53263;SDS011;39153;52.680;6.172;2023-02-25T01:39:08;22.23;;;2.50;;
53263;SDS011;39153;52.680;6.172;2023-02-25T01:41:34;18.83;;;2.40;;
53263;SDS011;39153;52.680;6.172;2023-02-25T01:46:30;16.98;;;2.25;;
53263;SDS011;39153;52.680;6.172;2023-02-25T01:48:56;24.27;;;3.03;;
53263;SDS011;39153;52.680;6.172;2023-02-25T01:51:22;18.08;;;2.22;;
53263;SDS011;39153;52.680;6.172;2023-02-25T01:53:51;17.02;;;2.30;;
53263;SDS011;39153;52.680;6.172;2023-02-25T01:56:21;22.65;;;2.42;;
53263;SDS011;39153;52.680;6.172;2023-02-25T01:58:49;25.80;;;3.47;;
53263;SDS011;39153;52.680;6.172;2023-02-25T02:01:18;16.67;;;2.25;;
53263;SDS011;39153;52.680;6.172;2023-02-25T02:03:46;20.17;;;2.30;;
53263;SDS011;39153;52.680;6.172;2023-02-25T02:06:15;15.98;;;2.13;;
53263;SDS011;39153;52.680;6.172;2023-02-25T02:08:49;14.18;;;2.00;;
53263;SDS011;39153;52.680;6.172;2023-02-25T02:11:15;18.90;;;2.35;;
53263;SDS011;39153;52.680;6.172;2023-02-25T02:13:43;18.70;;;2.15;;
53263;SDS011;39153;52.680;6.172;2023-02-25T02:16:29;16.42;;;2.63;;
53263;SDS011;39153;52.680;6.172;2023-02-25T02:33:14;20.17;;;1.90;;
53263;SDS011;39153;52.680;6.172;2023-02-25T02:41:22;17.38;;;2.00;;
53263;SDS011;39153;52.680;6.172;2023-02-25T02:44:06;15.95;;;2.35;;
53263;SDS011;39153;52.680;6.172;2023-02-25T02:47:14;18.77;;;2.35;;
53263;SDS011;39153;52.680;6.172;2023-02-25T02:50:03;17.70;;;2.22;;
53263;SDS011;39153;52.680;6.172;2023-02-25T02:52:32;19.63;;;2.83;;
53263;SDS011;39153;52.680;6.172;2023-02-25T02:55:23;18.17;;;2.70;;
53263;SDS011;39153;52.680;6.172;2023-02-25T02:57:57;14.23;;;2.20;;
53263;SDS011;39153;52.680;6.172;2023-02-25T03:00:55;16.90;;;2.75;;
53263;SDS011;39153;52.680;6.172;2023-02-25T03:03:42;23.00;;;2.60;;
53263;SDS011;39153;52.680;6.172;2023-02-25T03:06:12;20.38;;;2.80;;
53263;SDS011;39153;52.680;6.172;2023-02-25T03:08:43;17.25;;;1.98;;
53263;SDS011;39153;52.680;6.172;2023-02-25T03:11:12;17.80;;;2.13;;
53263;SDS011;39153;52.680;6.172;2023-02-25T03:13:38;17.58;;;2.30;;
53263;SDS011;39153;52.680;6.172;2023-02-25T03:16:05;19.85;;;2.08;;
53263;SDS011;39153;52.680;6.172;2023-02-25T03:18:36;20.13;;;2.42;;
53263;SDS011;39153;52.680;6.172;2023-02-25T03:23:38;13.50;;;2.08;;
53263;SDS011;39153;52.680;6.172;2023-02-25T03:26:11;17.08;;;1.75;;
53263;SDS011;39153;52.680;6.172;2023-02-25T03:28:45;18.38;;;2.72;;
53263;SDS011;39153;52.680;6.172;2023-02-25T03:31:13;16.30;;;2.47;;
53263;SDS011;39153;52.680;6.172;2023-02-25T03:33:51;21.38;;;2.95;;
53263;SDS011;39153;52.680;6.172;2023-02-25T03:36:28;20.80;;;2.60;;
53263;SDS011;39153;52.680;6.172;2023-02-25T03:39:14;13.30;;;2.05;;
53263;SDS011;39153;52.680;6.172;2023-02-25T03:41:45;23.70;;;2.47;;
53263;SDS011;39153;52.680;6.172;2023-02-25T03:44:18;24.95;;;2.90;;
53263;SDS011;39153;52.680;6.172;2023-02-25T03:46:47;17.42;;;2.47;;
53263;SDS011;39153;52.680;6.172;2023-02-25T03:49:18;15.88;;;1.80;;
53263;SDS011;39153;52.680;6.172;2023-02-25T03:51:50;14.65;;;2.25;;
53263;SDS011;39153;52.680;6.172;2023-02-25T03:54:19;11.77;;;1.85;;
53263;SDS011;39153;52.680;6.172;2023-02-25T03:56:46;15.63;;;2.00;;
53263;SDS011;39153;52.680;6.172;2023-02-25T03:59:14;14.55;;;1.63;;
53263;SDS011;39153;52.680;6.172;2023-02-25T04:01:41;16.80;;;1.70;;
53263;SDS011;39153;52.680;6.172;2023-02-25T04:04:08;13.77;;;1.98;;
53263;SDS011;39153;52.680;6.172;2023-02-25T04:06:34;13.80;;;2.08;;
53263;SDS011;39153;52.680;6.172;2023-02-25T04:09:00;12.48;;;1.83;;
53263;SDS011;39153;52.680;6.172;2023-02-25T04:11:26;12.27;;;1.70;;
53263;SDS011;39153;52.680;6.172;2023-02-25T04:13:51;14.38;;;1.90;;
53263;SDS011;39153;52.680;6.172;2023-02-25T04:16:17;18.73;;;2.38;;
53263;SDS011;39153;52.680;6.172;2023-02-25T04:18:43;10.20;;;1.50;;
53263;SDS011;39153;52.680;6.172;2023-02-25T04:21:08;13.27;;;1.73;;
53263;SDS011;39153;52.680;6.172;2023-02-25T04:23:47;12.57;;;1.83;;
53263;SDS011;39153;52.680;6.172;2023-02-25T04:26:13;17.13;;;2.00;;
53263;SDS011;39153;52.680;6.172;2023-02-25T04:28:39;17.92;;;2.30;;
53263;SDS011;39153;52.680;6.172;2023-02-25T04:31:04;16.67;;;2.22;;
53263;SDS011;39153;52.680;6.172;2023-02-25T04:33:30;14.65;;;1.83;;
53263;SDS011;39153;52.680;6.172;2023-02-25T04:35:56;17.20;;;2.70;;
53263;SDS011;39153;52.680;6.172;2023-02-25T04:38:22;12.73;;;2.03;;
53263;SDS011;39153;52.680;6.172;2023-02-25T04:40:49;20.42;;;2.40;;
53263;SDS011;39153;52.680;6.172;2023-02-25T04:43:15;22.42;;;2.72;;
53263;SDS011;39153;52.680;6.172;2023-02-25T04:45:41;22.13;;;1.60;;
53263;SDS011;39153;52.680;6.172;2023-02-25T04:48:07;15.25;;;1.83;;
53263;SDS011;39153;52.680;6.172;2023-02-25T04:50:33;23.48;;;2.55;;
53263;SDS011;39153;52.680;6.172;2023-02-25T04:52:59;21.88;;;2.90;;
53263;SDS011;39153;52.680;6.172;2023-02-25T04:55:26;14.52;;;2.25;;
53263;SDS011;39153;52.680;6.172;2023-02-25T04:57:52;19.63;;;2.83;;
53263;SDS011;39153;52.680;6.172;2023-02-25T05:00:21;11.95;;;2.00;;
53263;SDS011;39153;52.680;6.172;2023-02-25T05:02:51;13.93;;;1.88;;
53263;SDS011;39153;52.680;6.172;2023-02-25T05:05:16;21.00;;;2.00;;
53263;SDS011;39153;52.680;6.172;2023-02-25T05:07:42;18.27;;;2.40;;
53263;SDS011;39153;52.680;6.172;2023-02-25T05:10:09;16.20;;;2.47;;
53263;SDS011;39153;52.680;6.172;2023-02-25T05:12:36;15.02;;;1.90;;
53263;SDS011;39153;52.680;6.172;2023-02-25T05:15:02;15.45;;;1.92;;
53263;SDS011;39153;52.680;6.172;2023-02-25T05:17:29;14.40;;;2.60;;
53263;SDS011;39153;52.680;6.172;2023-02-25T05:19:56;22.60;;;2.53;;
53263;SDS011;39153;52.680;6.172;2023-02-25T05:22:23;16.20;;;1.95;;
53263;SDS011;39153;52.680;6.172;2023-02-25T05:24:49;22.48;;;2.35;;
53263;SDS011;39153;52.680;6.172;2023-02-25T05:27:15;21.83;;;2.75;;
53263;SDS011;39153;52.680;6.172;2023-02-25T05:29:40;20.00;;;2.55;;
53263;SDS011;39153;52.680;6.172;2023-02-25T05:32:06;20.17;;;2.53;;
53263;SDS011;39153;52.680;6.172;2023-02-25T05:34:32;16.95;;;2.20;;
53263;SDS011;39153;52.680;6.172;2023-02-25T05:36:59;13.38;;;1.95;;
53263;SDS011;39153;52.680;6.172;2023-02-25T05:39:25;20.08;;;2.60;;
53263;SDS011;39153;52.680;6.172;2023-02-25T05:41:51;18.75;;;1.73;;
53263;SDS011;39153;52.680;6.172;2023-02-25T05:44:17;16.23;;;2.00;;
53263;SDS011;39153;52.680;6.172;2023-02-25T05:46:42;16.30;;;1.90;;
53263;SDS011;39153;52.680;6.172;2023-02-25T05:49:09;9.93;;;1.73;;
53263;SDS011;39153;52.680;6.172;2023-02-25T05:51:35;14.95;;;2.42;;
53263;SDS011;39153;52.680;6.172;2023-02-25T05:54:00;25.55;;;2.58;;
53263;SDS011;39153;52.680;6.172;2023-02-25T05:56:26;15.88;;;1.65;;
53263;SDS011;39153;52.680;6.172;2023-02-25T05:58:53;19.92;;;2.40;;
53263;SDS011;39153;52.680;6.172;2023-02-25T06:01:21;12.05;;;1.80;;
53263;SDS011;39153;52.680;6.172;2023-02-25T06:03:49;20.08;;;2.47;;
53263;SDS011;39153;52.680;6.172;2023-02-25T06:06:16;13.80;;;2.15;;
53263;SDS011;39153;52.680;6.172;2023-02-25T06:08:47;20.70;;;2.33;;
53263;SDS011;39153;52.680;6.172;2023-02-25T06:11:17;17.95;;;2.97;;
53263;SDS011;39153;52.680;6.172;2023-02-25T06:13:48;11.77;;;1.55;;
53263;SDS011;39153;52.680;6.172;2023-02-25T06:16:15;14.93;;;2.00;;
53263;SDS011;39153;52.680;6.172;2023-02-25T06:18:42;10.52;;;1.92;;
53263;SDS011;39153;52.680;6.172;2023-02-25T06:21:08;11.98;;;2.33;;
53263;SDS011;39153;52.680;6.172;2023-02-25T06:23:36;9.50;;;1.40;;
53263;SDS011;39153;52.680;6.172;2023-02-25T06:26:03;8.98;;;0.98;;
53263;SDS011;39153;52.680;6.172;2023-02-25T06:28:31;8.13;;;1.10;;
53263;SDS011;39153;52.680;6.172;2023-02-25T06:30:58;4.00;;;1.08;;
53263;SDS011;39153;52.680;6.172;2023-02-25T06:33:24;8.02;;;0.80;;
53263;SDS011;39153;52.680;6.172;2023-02-25T06:35:53;7.70;;;1.20;;
53263;SDS011;39153;52.680;6.172;2023-02-25T06:38:19;5.88;;;0.90;;
53263;SDS011;39153;52.680;6.172;2023-02-25T06:40:45;10.77;;;1.42;;
53263;SDS011;39153;52.680;6.172;2023-02-25T06:43:13;6.07;;;0.73;;
53263;SDS011;39153;52.680;6.172;2023-02-25T06:45:38;5.90;;;1.00;;
53263;SDS011;39153;52.680;6.172;2023-02-25T06:48:04;10.15;;;1.13;;
53263;SDS011;39153;52.680;6.172;2023-02-25T06:50:31;7.28;;;1.00;;
53263;SDS011;39153;52.680;6.172;2023-02-25T06:52:57;7.75;;;1.25;;
53263;SDS011;39153;52.680;6.172;2023-02-25T06:55:23;7.88;;;0.80;;
53263;SDS011;39153;52.680;6.172;2023-02-25T06:57:49;7.72;;;0.88;;
53263;SDS011;39153;52.680;6.172;2023-02-25T07:00:14;6.78;;;0.93;;
53263;SDS011;39153;52.680;6.172;2023-02-25T07:02:40;8.15;;;0.68;;
53263;SDS011;39153;52.680;6.172;2023-02-25T07:05:06;3.92;;;0.85;;
53263;SDS011;39153;52.680;6.172;2023-02-25T07:07:32;6.03;;;0.80;;
53263;SDS011;39153;52.680;6.172;2023-02-25T07:09:58;7.70;;;0.95;;
53263;SDS011;39153;52.680;6.172;2023-02-25T07:12:23;4.95;;;0.80;;
53263;SDS011;39153;52.680;6.172;2023-02-25T07:14:49;7.88;;;1.13;;
53263;SDS011;39153;52.680;6.172;2023-02-25T07:17:15;6.40;;;0.95;;
53263;SDS011;39153;52.680;6.172;2023-02-25T07:19:41;6.47;;;1.10;;
53263;SDS011;39153;52.680;6.172;2023-02-25T07:22:12;4.78;;;0.80;;
53263;SDS011;39153;52.680;6.172;2023-02-25T07:24:39;8.27;;;1.65;;
53263;SDS011;39153;52.680;6.172;2023-02-25T07:27:05;9.13;;;1.60;;
53263;SDS011;39153;52.680;6.172;2023-02-25T07:29:32;7.85;;;1.88;;
53263;SDS011;39153;52.680;6.172;2023-02-25T07:31:57;9.82;;;1.98;;
53263;SDS011;39153;52.680;6.172;2023-02-25T07:34:24;14.98;;;2.15;;
53263;SDS011;39153;52.680;6.172;2023-02-25T07:36:50;12.60;;;2.00;;
53263;SDS011;39153;52.680;6.172;2023-02-25T07:39:16;14.32;;;1.90;;
53263;SDS011;39153;52.680;6.172;2023-02-25T07:41:41;13.02;;;2.08;;
53263;SDS011;39153;52.680;6.172;2023-02-25T07:44:07;16.27;;;2.03;;
53263;SDS011;39153;52.680;6.172;2023-02-25T07:46:33;13.95;;;1.88;;
53263;SDS011;39153;52.680;6.172;2023-02-25T07:48:59;15.02;;;2.55;;
53263;SDS011;39153;52.680;6.172;2023-02-25T07:51:25;11.27;;;2.38;;
53263;SDS011;39153;52.680;6.172;2023-02-25T07:53:52;12.27;;;1.92;;
53263;SDS011;39153;52.680;6.172;2023-02-25T07:56:23;10.15;;;1.80;;
53263;SDS011;39153;52.680;6.172;2023-02-25T07:58:50;9.18;;;1.42;;
53263;SDS011;39153;52.680;6.172;2023-02-25T08:01:18;7.82;;;1.38;;
53263;SDS011;39153;52.680;6.172;2023-02-25T08:03:49;7.47;;;1.67;;
53263;SDS011;39153;52.680;6.172;2023-02-25T08:06:16;11.70;;;2.13;;
53263;SDS011;39153;52.680;6.172;2023-02-25T08:08:42;11.10;;;1.80;;
53263;SDS011;39153;52.680;6.172;2023-02-25T08:11:09;5.28;;;1.30;;
53263;SDS011;39153;52.680;6.172;2023-02-25T08:13:37;8.73;;;1.17;;
53263;SDS011;39153;52.680;6.172;2023-02-25T08:16:06;5.95;;;0.90;;
53263;SDS011;39153;52.680;6.172;2023-02-25T08:18:34;3.25;;;0.70;;
53263;SDS011;39153;52.680;6.172;2023-02-25T08:21:00;6.47;;;0.93;;
53263;SDS011;39153;52.680;6.172;2023-02-25T08:23:26;4.72;;;0.80;;
53263;SDS011;39153;52.680;6.172;2023-02-25T08:25:55;2.53;;;0.77;;
53263;SDS011;39153;52.680;6.172;2023-02-25T08:28:23;2.95;;;0.70;;
53263;SDS011;39153;52.680;6.172;2023-02-25T08:30:50;9.52;;;1.58;;
53263;SDS011;39153;52.680;6.172;2023-02-25T08:33:17;5.20;;;0.95;;
53263;SDS011;39153;52.680;6.172;2023-02-25T08:35:43;5.35;;;1.02;;
53263;SDS011;39153;52.680;6.172;2023-02-25T08:38:09;6.72;;;1.08;;
53263;SDS011;39153;52.680;6.172;2023-02-25T08:40:37;10.07;;;1.85;;
53263;SDS011;39153;52.680;6.172;2023-02-25T08:43:04;7.15;;;1.27;;
53263;SDS011;39153;52.680;6.172;2023-02-25T08:45:30;7.63;;;1.38;;
53263;SDS011;39153;52.680;6.172;2023-02-25T08:47:55;6.47;;;0.95;;
53263;SDS011;39153;52.680;6.172;2023-02-25T08:50:21;6.20;;;1.20;;
53263;SDS011;39153;52.680;6.172;2023-02-25T08:52:48;5.80;;;1.00;;
53263;SDS011;39153;52.680;6.172;2023-02-25T08:55:14;5.72;;;0.98;;
53263;SDS011;39153;52.680;6.172;2023-02-25T08:57:41;13.10;;;1.23;;
53263;SDS011;39153;52.680;6.172;2023-02-25T09:00:10;9.65;;;1.00;;
53263;SDS011;39153;52.680;6.172;2023-02-25T09:02:39;4.32;;;0.93;;
53263;SDS011;39153;52.680;6.172;2023-02-25T09:05:06;5.22;;;1.00;;
53263;SDS011;39153;52.680;6.172;2023-02-25T09:07:32;4.03;;;0.95;;
53263;SDS011;39153;52.680;6.172;2023-02-25T09:09:57;7.60;;;1.02;;
53263;SDS011;39153;52.680;6.172;2023-02-25T09:12:23;6.40;;;1.13;;
53263;SDS011;39153;52.680;6.172;2023-02-25T09:14:49;8.75;;;1.17;;
53263;SDS011;39153;52.680;6.172;2023-02-25T09:17:15;6.60;;;1.10;;
53263;SDS011;39153;52.680;6.172;2023-02-25T09:19:41;5.88;;;1.20;;
53263;SDS011;39153;52.680;6.172;2023-02-25T09:22:07;8.48;;;1.35;;
53263;SDS011;39153;52.680;6.172;2023-02-25T09:24:34;12.35;;;2.17;;
53263;SDS011;39153;52.680;6.172;2023-02-25T09:27:01;8.95;;;1.60;;
53263;SDS011;39153;52.680;6.172;2023-02-25T09:32:01;8.43;;;1.83;;
53263;SDS011;39153;52.680;6.172;2023-02-25T09:34:26;5.72;;;1.02;;
53263;SDS011;39153;52.680;6.172;2023-02-25T09:36:52;12.68;;;1.30;;
53263;SDS011;39153;52.680;6.172;2023-02-25T09:39:18;8.77;;;1.67;;
53263;SDS011;39153;52.680;6.172;2023-02-25T09:44:35;9.38;;;1.40;;
53263;SDS011;39153;52.680;6.172;2023-02-25T09:47:24;8.15;;;1.23;;
53263;SDS011;39153;52.680;6.172;2023-02-25T09:50:05;19.02;;;1.60;;
53263;SDS011;39153;52.680;6.172;2023-02-25T09:52:35;10.60;;;1.48;;
53263;SDS011;39153;52.680;6.172;2023-02-25T09:55:22;6.88;;;1.42;;
53263;SDS011;39153;52.680;6.172;2023-02-25T10:00:44;7.82;;;1.35;;
53263;SDS011;39153;52.680;6.172;2023-02-25T10:03:16;6.88;;;1.23;;
53263;SDS011;39153;52.680;6.172;2023-02-25T10:06:26;8.55;;;1.35;;
53263;SDS011;39153;52.680;6.172;2023-02-25T10:25:27;11.13;;;1.42;;
53263;SDS011;39153;52.680;6.172;2023-02-25T10:28:02;9.25;;;1.40;;
53263;SDS011;39153;52.680;6.172;2023-02-25T10:33:23;13.82;;;1.65;;
53263;SDS011;39153;52.680;6.172;2023-02-25T10:35:52;9.18;;;1.55;;
53263;SDS011;39153;52.680;6.172;2023-02-25T10:38:27;13.23;;;1.63;;
53263;SDS011;39153;52.680;6.172;2023-02-25T10:40:54;11.13;;;1.13;;
53263;SDS011;39153;52.680;6.172;2023-02-25T10:43:23;12.25;;;1.55;;
53263;SDS011;39153;52.680;6.172;2023-02-25T10:45:55;8.80;;;1.67;;
53263;SDS011;39153;52.680;6.172;2023-02-25T10:48:27;7.82;;;1.50;;
53263;SDS011;39153;52.680;6.172;2023-02-25T10:51:04;15.02;;;1.67;;
53263;SDS011;39153;52.680;6.172;2023-02-25T10:53:58;9.85;;;1.92;;
53263;SDS011;39153;52.680;6.172;2023-02-25T10:56:32;10.48;;;1.67;;
53263;SDS011;39153;52.680;6.172;2023-02-25T10:59:18;11.85;;;1.52;;
53263;SDS011;39153;52.680;6.172;2023-02-25T11:01:59;12.07;;;1.73;;
53263;SDS011;39153;52.680;6.172;2023-02-25T11:04:33;9.63;;;1.50;;
53263;SDS011;39153;52.680;6.172;2023-02-25T11:07:01;13.18;;;1.88;;
53263;SDS011;39153;52.680;6.172;2023-02-25T11:12:56;8.15;;;1.58;;
53263;SDS011;39153;52.680;6.172;2023-02-25T11:18:05;14.48;;;2.60;;
53263;SDS011;39153;52.680;6.172;2023-02-25T11:20:52;11.68;;;1.73;;
53263;SDS011;39153;52.680;6.172;2023-02-25T11:26:06;11.60;;;1.73;;
53263;SDS011;39153;52.680;6.172;2023-02-25T11:31:23;10.50;;;1.63;;
53263;SDS011;39153;52.680;6.172;2023-02-25T11:34:01;9.55;;;1.77;;
53263;SDS011;39153;52.680;6.172;2023-02-25T11:39:52;9.68;;;1.42;;
53263;SDS011;39153;52.680;6.172;2023-02-25T11:42:21;7.00;;;1.38;;
53263;SDS011;39153;52.680;6.172;2023-02-25T11:45:00;8.55;;;1.38;;
53263;SDS011;39153;52.680;6.172;2023-02-25T11:47:31;3.67;;;1.13;;
53263;SDS011;39153;52.680;6.172;2023-02-25T11:53:08;5.82;;;1.20;;
53263;SDS011;39153;52.680;6.172;2023-02-25T11:55:57;4.10;;;1.00;;
53263;SDS011;39153;52.680;6.172;2023-02-25T12:01:47;6.90;;;1.30;;
53263;SDS011;39153;52.680;6.172;2023-02-25T12:37:48;4.90;;;1.13;;
53263;SDS011;39153;52.680;6.172;2023-02-25T12:54:04;4.95;;;0.95;;
53263;SDS011;39153;52.680;6.172;2023-02-25T12:57:03;3.88;;;0.90;;
53263;SDS011;39153;52.680;6.172;2023-02-25T13:03:08;4.25;;;1.00;;
53263;SDS011;39153;52.680;6.172;2023-02-25T13:09:07;5.63;;;1.23;;
53263;SDS011;39153;52.680;6.172;2023-02-25T13:34:20;5.00;;;1.20;;
53263;SDS011;39153;52.680;6.172;2023-02-25T13:40:03;6.75;;;1.05;;
53263;SDS011;39153;52.680;6.172;2023-02-25T13:50:36;5.43;;;0.90;;
53263;SDS011;39153;52.680;6.172;2023-02-25T14:10:15;6.80;;;1.40;;
53263;SDS011;39153;52.680;6.172;2023-02-25T14:16:00;9.32;;;1.52;;
53263;SDS011;39153;52.680;6.172;2023-02-25T14:35:54;8.98;;;1.77;;
53263;SDS011;39153;52.680;6.172;2023-02-25T14:44:28;7.60;;;1.83;;
53263;SDS011;39153;52.680;6.172;2023-02-25T14:47:04;12.07;;;1.83;;
53263;SDS011;39153;52.680;6.172;2023-02-25T14:49:40;7.10;;;1.73;;
53263;SDS011;39153;52.680;6.172;2023-02-25T15:08:55;9.50;;;1.65;;
53263;SDS011;39153;52.680;6.172;2023-02-25T15:17:24;8.05;;;1.40;;
53263;SDS011;39153;52.680;6.172;2023-02-25T15:25:36;8.52;;;1.05;;
53263;SDS011;39153;52.680;6.172;2023-02-25T15:33:40;10.25;;;1.40;;
53263;SDS011;39153;52.680;6.172;2023-02-25T15:46:30;7.32;;;1.35;;
53263;SDS011;39153;52.680;6.172;2023-02-25T15:51:52;10.35;;;1.65;;
53263;SDS011;39153;52.680;6.172;2023-02-25T15:56:52;7.43;;;1.27;;
53263;SDS011;39153;52.680;6.172;2023-02-25T15:59:45;5.65;;;1.40;;
53263;SDS011;39153;52.680;6.172;2023-02-25T16:04:56;8.95;;;1.25;;
53263;SDS011;39153;52.680;6.172;2023-02-25T16:07:46;9.02;;;1.38;;
53263;SDS011;39153;52.680;6.172;2023-02-25T16:12:43;10.80;;;1.42;;
53263;SDS011;39153;52.680;6.172;2023-02-25T16:15:14;5.38;;;1.10;;
53263;SDS011;39153;52.680;6.172;2023-02-25T16:17:46;12.60;;;1.52;;
53263;SDS011;39153;52.680;6.172;2023-02-25T16:20:21;9.43;;;1.75;;
53263;SDS011;39153;52.680;6.172;2023-02-25T16:22:51;9.93;;;1.45;;
53263;SDS011;39153;52.680;6.172;2023-02-25T16:25:23;10.23;;;1.40;;
53263;SDS011;39153;52.680;6.172;2023-02-25T16:28:05;11.13;;;1.60;;
53263;SDS011;39153;52.680;6.172;2023-02-25T16:30:47;11.10;;;1.67;;
53263;SDS011;39153;52.680;6.172;2023-02-25T16:36:28;6.30;;;1.40;;
53263;SDS011;39153;52.680;6.172;2023-02-25T16:39:17;10.05;;;1.50;;
53263;SDS011;39153;52.680;6.172;2023-02-25T16:41:45;6.75;;;1.20;;
53263;SDS011;39153;52.680;6.172;2023-02-25T16:44:19;6.95;;;1.20;;
53263;SDS011;39153;52.680;6.172;2023-02-25T16:46:50;11.27;;;1.30;;
53263;SDS011;39153;52.680;6.172;2023-02-25T16:49:30;11.23;;;1.58;;
53263;SDS011;39153;52.680;6.172;2023-02-25T16:52:00;9.57;;;1.30;;
53263;SDS011;39153;52.680;6.172;2023-02-25T16:54:31;7.72;;;1.67;;
53263;SDS011;39153;52.680;6.172;2023-02-25T16:59:31;6.90;;;1.90;;
53263;SDS011;39153;52.680;6.172;2023-02-25T17:04:50;6.80;;;1.60;;
53263;SDS011;39153;52.680;6.172;2023-02-25T17:09:49;6.38;;;1.60;;
53263;SDS011;39153;52.680;6.172;2023-02-25T17:12:38;9.38;;;1.83;;
53263;SDS011;39153;52.680;6.172;2023-02-25T17:15:26;7.70;;;1.48;;
53263;SDS011;39153;52.680;6.172;2023-02-25T17:20:34;6.45;;;1.15;;
53263;SDS011;39153;52.680;6.172;2023-02-25T17:23:02;5.38;;;1.17;;
53263;SDS011;39153;52.680;6.172;2023-02-25T17:25:35;4.18;;;0.93;;
53263;SDS011;39153;52.680;6.172;2023-02-25T17:28:03;4.53;;;1.08;;
53263;SDS011;39153;52.680;6.172;2023-02-25T17:33:05;7.38;;;1.67;;
53263;SDS011;39153;52.680;6.172;2023-02-25T17:35:42;6.72;;;1.58;;
53263;SDS011;39153;52.680;6.172;2023-02-25T17:38:11;4.65;;;1.05;;
53263;SDS011;39153;52.680;6.172;2023-02-25T17:40:41;11.43;;;1.80;;
53263;SDS011;39153;52.680;6.172;2023-02-25T17:43:16;5.07;;;1.30;;
53263;SDS011;39153;52.680;6.172;2023-02-25T17:45:56;5.80;;;1.27;;
53263;SDS011;39153;52.680;6.172;2023-02-25T17:48:26;7.60;;;1.40;;
53263;SDS011;39153;52.680;6.172;2023-02-25T17:50:59;7.68;;;1.52;;
53263;SDS011;39153;52.680;6.172;2023-02-25T17:53:40;7.72;;;1.23;;
53263;SDS011;39153;52.680;6.172;2023-02-25T17:56:12;6.97;;;1.60;;
53263;SDS011;39153;52.680;6.172;2023-02-25T17:58:49;7.70;;;1.10;;
53263;SDS011;39153;52.680;6.172;2023-02-25T18:01:24;8.32;;;1.20;;
53263;SDS011;39153;52.680;6.172;2023-02-25T18:03:56;6.00;;;1.55;;
53263;SDS011;39153;52.680;6.172;2023-02-25T18:08:56;8.02;;;1.73;;
53263;SDS011;39153;52.680;6.172;2023-02-25T18:13:48;9.13;;;1.40;;
53263;SDS011;39153;52.680;6.172;2023-02-25T18:18:54;7.57;;;1.45;;
53263;SDS011;39153;52.680;6.172;2023-02-25T18:21:22;4.30;;;0.80;;
53263;SDS011;39153;52.680;6.172;2023-02-25T18:23:48;3.38;;;0.80;;
53263;SDS011;39153;52.680;6.172;2023-02-25T18:26:19;5.13;;;0.90;;
53263;SDS011;39153;52.680;6.172;2023-02-25T18:28:47;4.45;;;0.93;;
53263;SDS011;39153;52.680;6.172;2023-02-25T18:31:15;6.95;;;0.90;;
53263;SDS011;39153;52.680;6.172;2023-02-25T18:33:43;8.10;;;1.45;;
53263;SDS011;39153;52.680;6.172;2023-02-25T18:36:18;6.05;;;1.10;;
53263;SDS011;39153;52.680;6.172;2023-02-25T18:38:47;5.07;;;1.17;;
53263;SDS011;39153;52.680;6.172;2023-02-25T18:41:14;5.63;;;1.05;;
53263;SDS011;39153;52.680;6.172;2023-02-25T18:43:40;5.95;;;1.13;;
53263;SDS011;39153;52.680;6.172;2023-02-25T18:46:07;7.88;;;1.20;;
53263;SDS011;39153;52.680;6.172;2023-02-25T18:48:33;7.78;;;1.10;;
53263;SDS011;39153;52.680;6.172;2023-02-25T18:50:59;4.00;;;1.00;;
53263;SDS011;39153;52.680;6.172;2023-02-25T18:53:26;6.93;;;1.40;;
53263;SDS011;39153;52.680;6.172;2023-02-25T18:55:53;6.90;;;1.25;;
53263;SDS011;39153;52.680;6.172;2023-02-25T18:58:20;6.72;;;1.17;;
53263;SDS011;39153;52.680;6.172;2023-02-25T19:00:48;4.65;;;0.98;;
53263;SDS011;39153;52.680;6.172;2023-02-25T19:03:16;5.78;;;1.13;;
53263;SDS011;39153;52.680;6.172;2023-02-25T19:05:49;6.30;;;1.27;;
53263;SDS011;39153;52.680;6.172;2023-02-25T19:08:15;7.05;;;1.95;;
53263;SDS011;39153;52.680;6.172;2023-02-25T19:10:42;4.90;;;1.30;;
53263;SDS011;39153;52.680;6.172;2023-02-25T19:13:13;5.82;;;1.30;;
53263;SDS011;39153;52.680;6.172;2023-02-25T19:15:40;5.45;;;1.13;;
53263;SDS011;39153;52.680;6.172;2023-02-25T19:18:08;6.13;;;1.17;;
53263;SDS011;39153;52.680;6.172;2023-02-25T19:20:36;7.78;;;1.33;;
53263;SDS011;39153;52.680;6.172;2023-02-25T19:23:02;7.00;;;1.27;;
53263;SDS011;39153;52.680;6.172;2023-02-25T19:25:29;10.20;;;1.45;;
53263;SDS011;39153;52.680;6.172;2023-02-25T19:27:58;7.05;;;1.40;;
53263;SDS011;39153;52.680;6.172;2023-02-25T19:30:29;9.27;;;1.60;;
53263;SDS011;39153;52.680;6.172;2023-02-25T19:32:58;8.27;;;1.40;;
53263;SDS011;39153;52.680;6.172;2023-02-25T19:35:28;13.48;;;1.80;;
53263;SDS011;39153;52.680;6.172;2023-02-25T19:37:56;8.75;;;1.40;;
53263;SDS011;39153;52.680;6.172;2023-02-25T19:40:22;6.57;;;1.67;;